createdAt,value
2018-01-27T00:01:24.361Z,92.34
2018-01-27T00:03:51.844Z,93.01
2018-01-27T00:06:19.289Z,92.09
2018-01-27T00:08:46.989Z,92.03
2018-01-27T00:11:14.438Z,91.54
2018-01-27T00:13:54.769Z,91.89
2018-01-27T00:16:22.213Z,92.80
2018-01-27T00:18:49.659Z,93.73
2018-01-27T00:21:17.123Z,94.08
2018-01-27T00:23:44.573Z,94.98
2018-01-27T00:26:12.182Z,95.39
2018-01-27T00:28:39.633Z,94.90
2018-01-27T00:31:07.079Z,94.59
2018-01-27T00:33:34.551Z,93.49
2018-01-27T00:36:01.993Z,93.51
2018-01-27T00:38:29.684Z,92.55
2018-01-27T00:40:57.217Z,93.05
2018-01-27T00:43:24.845Z,93.68
2018-01-27T00:45:52.308Z,93.55
2018-01-27T00:48:19.773Z,92.60
2018-01-27T00:50:47.377Z,91.75
2018-01-27T00:53:14.829Z,92.14
2018-01-27T00:55:42.285Z,92.11
2018-01-27T00:58:09.783Z,92.68
2018-01-27T01:00:37.241Z,92.72
2018-01-27T01:03:04.951Z,93.28
2018-01-27T01:05:32.396Z,92.95
2018-01-27T01:07:59.848Z,92.99
2018-01-27T01:10:27.319Z,92.66
2018-01-27T01:12:54.770Z,92.75
2018-01-27T01:15:22.293Z,92.52
2018-01-27T01:17:49.757Z,91.90
2018-01-27T01:20:17.249Z,91.76
2018-01-27T01:22:45.022Z,92.34
2018-01-27T01:25:12.465Z,92.87
2018-01-27T01:27:39.932Z,92.25
2018-01-27T01:30:07.382Z,92.61
2018-01-27T01:32:34.829Z,93.11
2018-01-27T01:35:02.333Z,92.25
2018-01-27T01:37:29.780Z,92.39
2018-01-27T01:39:57.284Z,92.70
2018-01-27T01:42:30.200Z,92.69
2018-01-27T01:44:57.668Z,92.35
2018-01-27T01:47:25.978Z,92.34
2018-01-27T01:49:53.453Z,93.21
2018-01-27T01:52:20.917Z,93.69
2018-01-27T01:54:48.361Z,93.28
2018-01-27T01:57:15.957Z,92.51
2018-01-27T01:59:43.397Z,92.33
2018-01-27T02:02:10.836Z,92.37
2018-01-27T02:04:38.316Z,92.74
2018-01-27T02:07:05.771Z,93.14
2018-01-27T02:09:33.452Z,92.49
2018-01-27T02:12:00.901Z,92.55
2018-01-27T02:14:28.344Z,92.90
2018-01-27T02:16:55.844Z,93.11
2018-01-27T02:19:23.298Z,93.60
2018-01-27T02:21:50.932Z,93.41
2018-01-27T02:24:18.377Z,92.57
2018-01-27T02:26:45.817Z,93.32
2018-01-27T02:29:13.293Z,93.12
2018-01-27T02:31:40.763Z,91.77
2018-01-27T02:34:08.261Z,92.31
2018-01-27T02:36:35.700Z,91.33
2018-01-27T02:39:03.193Z,92.37
2018-01-27T02:41:30.668Z,92.85
2018-01-27T02:43:58.112Z,93.73
2018-01-27T02:46:25.580Z,93.67
2018-01-27T02:48:53.041Z,93.57
2018-01-27T02:51:20.509Z,92.77
2018-01-27T02:53:47.964Z,92.12
2018-01-27T02:56:15.421Z,93.10
2018-01-27T02:58:42.888Z,92.74
2018-01-27T03:01:10.340Z,91.70
2018-01-27T03:03:37.784Z,91.87
2018-01-27T03:06:05.264Z,92.24
2018-01-27T03:08:32.708Z,92.13
2018-01-27T03:11:00.393Z,92.25
2018-01-27T03:13:27.845Z,91.57
2018-01-27T03:15:55.300Z,91.93
2018-01-27T03:18:22.769Z,92.39
2018-01-27T03:20:50.218Z,91.59
2018-01-27T03:23:17.852Z,92.74
2018-01-27T03:25:45.294Z,93.65
2018-01-27T03:28:12.760Z,94.16
2018-01-27T03:30:40.253Z,93.34
2018-01-27T03:33:07.717Z,91.94
2018-01-27T03:35:35.453Z,91.63
2018-01-27T03:38:02.902Z,91.88
2018-01-27T03:40:30.344Z,91.92
2018-01-27T03:42:58.544Z,92.64
2018-01-27T03:45:25.989Z,92.74
2018-01-27T03:47:53.650Z,92.38
2018-01-27T03:50:21.092Z,92.76
2018-01-27T03:52:48.541Z,93.32
2018-01-27T03:55:16.225Z,92.61
2018-01-27T03:57:43.666Z,92.72
2018-01-27T04:00:11.344Z,92.74
2018-01-27T04:02:38.798Z,92.81
2018-01-27T04:05:06.240Z,92.47
2018-01-27T04:07:33.713Z,93.07
2018-01-27T04:10:01.169Z,93.62
2018-01-27T04:12:29.037Z,93.59
2018-01-27T04:14:56.476Z,92.82
2018-01-27T04:17:23.920Z,91.91
2018-01-27T04:19:51.390Z,92.01
2018-01-27T04:22:18.833Z,92.86
2018-01-27T04:24:46.317Z,93.04
2018-01-27T04:27:13.768Z,93.31
2018-01-27T04:29:41.221Z,94.14
2018-01-27T04:32:08.799Z,94.52
2018-01-27T04:34:36.253Z,95.28
2018-01-27T04:37:04.009Z,95.38
2018-01-27T04:39:31.465Z,96.04
2018-01-27T04:41:58.933Z,96.24
2018-01-27T04:44:26.404Z,96.17
2018-01-27T04:46:53.852Z,95.64
2018-01-27T04:49:21.712Z,95.01
2018-01-27T04:51:49.176Z,94.89
2018-01-27T04:54:16.632Z,94.81
2018-01-27T04:56:46.267Z,95.54
2018-01-27T04:59:13.737Z,95.68
2018-01-27T05:01:41.557Z,94.90
2018-01-27T05:04:09.024Z,95.75
2018-01-27T05:06:36.468Z,95.79
2018-01-27T05:09:04.568Z,96.29
2018-01-27T05:11:32.097Z,94.36
2018-01-27T05:13:59.717Z,94.73
2018-01-27T05:16:27.372Z,94.20
2018-01-27T05:18:54.815Z,94.41
2018-01-27T05:21:22.956Z,94.76
2018-01-27T05:23:50.396Z,95.73
2018-01-27T05:26:18.053Z,95.74
2018-01-27T05:28:45.667Z,96.19
2018-01-27T05:31:13.101Z,95.37
2018-01-27T05:33:40.778Z,94.19
2018-01-27T05:36:08.220Z,94.55
2018-01-27T05:38:35.929Z,95.99
2018-01-27T05:41:03.384Z,96.76
2018-01-27T05:43:30.828Z,96.01
2018-01-27T05:45:58.683Z,95.83
2018-01-27T05:48:26.143Z,96.79
2018-01-27T05:50:53.747Z,97.73
2018-01-27T05:53:21.195Z,97.44
2018-01-27T05:55:48.717Z,97.39
2018-01-27T05:58:16.180Z,97.51
2018-01-27T06:00:43.628Z,97.89
2018-01-27T06:03:11.437Z,98.26
2018-01-27T06:05:38.898Z,98.63
2018-01-27T06:08:06.353Z,98.27
2018-01-27T06:10:33.816Z,98.42
2018-01-27T06:13:01.268Z,97.67
2018-01-27T06:15:28.737Z,97.34
2018-01-27T06:17:56.177Z,96.18
2018-01-27T06:20:23.622Z,96.00
2018-01-27T06:22:51.093Z,95.66
2018-01-27T06:25:18.537Z,95.44
2018-01-27T06:27:46.201Z,94.75
2018-01-27T06:30:13.645Z,95.40
2018-01-27T06:32:41.080Z,95.17
2018-01-27T06:35:08.540Z,96.15
2018-01-27T06:37:36.017Z,95.80
2018-01-27T06:40:03.489Z,95.04
2018-01-27T06:42:30.956Z,95.56
2018-01-27T06:44:58.399Z,95.45
2018-01-27T06:47:25.869Z,96.53
2018-01-27T06:49:53.314Z,96.81
2018-01-27T06:52:20.980Z,97.02
2018-01-27T06:54:48.417Z,97.40
2018-01-27T06:57:15.886Z,97.69
2018-01-27T06:59:43.357Z,97.35
2018-01-27T07:02:11.048Z,97.64
2018-01-27T07:04:38.664Z,97.13
2018-01-27T07:07:06.104Z,97.54
2018-01-27T07:09:33.712Z,97.70
2018-01-27T07:12:01.186Z,97.27
2018-01-27T07:14:28.636Z,97.53
2018-01-27T07:16:56.120Z,97.69
2018-01-27T07:19:23.568Z,97.87
2018-01-27T07:21:51.028Z,98.61
2018-01-27T07:24:18.613Z,99.00
2018-01-27T07:26:46.065Z,99.54
2018-01-27T07:29:13.862Z,99.44
2018-01-27T07:31:41.332Z,99.89
2018-01-27T07:34:08.789Z,100.00
2018-01-27T07:36:36.254Z,99.64
2018-01-27T07:39:03.708Z,99.30
2018-01-27T07:41:31.477Z,99.16
2018-01-27T07:43:58.945Z,98.44
2018-01-27T07:46:26.393Z,98.45
2018-01-27T07:48:53.857Z,98.20
2018-01-27T07:51:21.324Z,98.05
2018-01-27T07:53:48.905Z,98.13
2018-01-27T07:56:16.353Z,96.56
2018-01-27T07:58:43.796Z,95.82
2018-01-27T08:01:11.256Z,94.92
2018-01-27T08:03:39.678Z,95.32
2018-01-27T08:06:07.437Z,96.19
2018-01-27T08:08:34.890Z,96.54
2018-01-27T08:11:02.332Z,97.58
2018-01-27T08:13:29.833Z,97.45
2018-01-27T08:15:57.299Z,96.51
2018-01-27T08:18:24.885Z,96.59
2018-01-27T08:20:52.341Z,96.23
2018-01-27T08:23:19.792Z,96.93
2018-01-27T08:25:47.328Z,97.61
2018-01-27T08:28:14.773Z,96.89
2018-01-27T08:30:42.408Z,96.24
2018-01-27T08:33:10.057Z,96.66
2018-01-27T08:35:37.509Z,97.27
2018-01-27T08:38:07.652Z,96.43
2018-01-27T08:40:35.104Z,96.90
2018-01-27T08:43:02.763Z,96.00
2018-01-27T08:45:30.220Z,95.20
2018-01-27T08:47:57.731Z,95.20
2018-01-27T08:50:25.208Z,94.47
2018-01-27T08:52:52.653Z,95.26
2018-01-27T08:55:20.202Z,96.37
2018-01-27T08:57:47.648Z,95.97
2018-01-27T09:00:15.109Z,95.62
2018-01-27T09:02:42.929Z,94.57
2018-01-27T09:05:10.372Z,93.48
2018-01-27T09:07:37.855Z,94.46
2018-01-27T09:10:05.305Z,95.80
2018-01-27T09:12:32.753Z,96.92
2018-01-27T09:15:00.365Z,97.31
2018-01-27T09:17:27.828Z,95.95
2018-01-27T09:19:55.456Z,96.47
2018-01-27T09:22:23.028Z,96.18
2018-01-27T09:24:50.545Z,96.67
2018-01-27T09:27:18.272Z,96.53
2018-01-27T09:29:45.717Z,96.66
2018-01-27T09:32:13.452Z,95.99
2018-01-27T09:34:40.900Z,95.03
2018-01-27T09:37:08.353Z,96.29
2018-01-27T09:39:36.241Z,95.74
2018-01-27T09:42:03.706Z,95.01
2018-01-27T09:44:31.477Z,95.01
2018-01-27T09:46:58.922Z,94.57
2018-01-27T09:49:26.404Z,94.14
2018-01-27T09:51:54.568Z,94.73
2018-01-27T09:54:22.008Z,94.01
2018-01-27T09:56:49.637Z,93.98
2018-01-27T09:59:17.094Z,94.62
2018-01-27T10:01:44.546Z,94.52
2018-01-27T10:04:12.050Z,95.39
2018-01-27T10:06:39.532Z,95.64
2018-01-27T10:09:07.117Z,95.01
2018-01-27T10:11:34.632Z,94.44
2018-01-27T10:14:02.081Z,93.94
2018-01-27T10:16:29.569Z,94.15
2018-01-27T10:18:57.013Z,94.34
2018-01-27T10:21:24.818Z,94.01
2018-01-27T10:23:52.280Z,94.59
2018-01-27T10:26:19.934Z,94.21
2018-01-27T10:28:47.697Z,93.18
2018-01-27T10:31:15.137Z,93.54
2018-01-27T10:33:42.768Z,93.12
2018-01-27T10:36:10.228Z,93.19
2018-01-27T10:38:37.756Z,93.40
2018-01-27T10:41:05.249Z,93.32
2018-01-27T10:43:32.701Z,94.33
2018-01-27T10:46:00.409Z,93.88
2018-01-27T10:48:27.852Z,95.50
2018-01-27T10:50:55.299Z,95.77
2018-01-27T10:53:22.772Z,95.24
2018-01-27T10:55:50.254Z,95.08
2018-01-27T10:58:17.990Z,94.97
2018-01-27T11:00:48.245Z,96.36
2018-01-27T11:03:15.688Z,96.34
2018-01-27T11:05:43.233Z,95.88
2018-01-27T11:08:10.681Z,96.17
2018-01-27T11:10:38.357Z,96.46
2018-01-27T11:13:05.805Z,96.61
2018-01-27T11:15:33.275Z,97.02
2018-01-27T11:18:00.788Z,96.37
2018-01-27T11:20:28.232Z,95.49
2018-01-27T11:22:55.935Z,95.62
2018-01-27T11:25:23.377Z,96.04
2018-01-27T11:27:51.130Z,96.27
2018-01-27T11:30:20.735Z,95.52
2018-01-27T11:32:48.204Z,94.93
2018-01-27T11:35:15.756Z,92.98
2018-01-27T11:37:43.193Z,93.28
2018-01-27T11:40:10.669Z,93.31
2018-01-27T11:42:38.133Z,93.84
2018-01-27T11:45:05.581Z,93.77
2018-01-27T11:47:33.060Z,94.17
2018-01-27T11:50:00.501Z,94.41
2018-01-27T11:52:27.981Z,93.60
2018-01-27T11:54:55.514Z,90.22
2018-01-27T11:57:22.964Z,92.74
2018-01-27T11:59:50.672Z,92.58
2018-01-27T12:02:18.121Z,92.63
2018-01-27T12:04:45.585Z,94.04
2018-01-27T12:07:13.086Z,93.46
2018-01-27T12:09:40.533Z,93.59
2018-01-27T12:12:08.088Z,94.90
2018-01-27T12:14:35.533Z,94.32
2018-01-27T12:17:02.977Z,94.43
2018-01-27T12:19:30.445Z,92.64
2018-01-27T12:21:57.889Z,91.62
2018-01-27T12:24:25.516Z,92.06
2018-01-27T12:26:52.962Z,92.74
2018-01-27T12:29:20.476Z,93.20
2018-01-27T12:31:47.957Z,92.57
2018-01-27T12:34:15.405Z,93.67
2018-01-27T12:36:42.897Z,92.46
2018-01-27T12:39:10.448Z,92.66
2018-01-27T12:41:37.893Z,92.20
2018-01-27T12:44:05.365Z,92.79
2018-01-27T12:46:32.805Z,90.52
2018-01-27T12:49:00.254Z,90.71
2018-01-27T12:51:27.724Z,91.32
2018-01-27T12:53:55.168Z,91.31
2018-01-27T12:56:22.613Z,92.14
2018-01-27T12:58:50.101Z,92.96
2018-01-27T13:01:17.545Z,93.39
2018-01-27T13:03:44.989Z,92.85
2018-01-27T13:06:12.469Z,93.62
2018-01-27T13:08:39.916Z,93.43
2018-01-27T13:11:07.445Z,94.27
2018-01-27T13:13:34.949Z,94.39
2018-01-27T13:16:02.397Z,94.21
2018-01-27T13:18:29.859Z,94.34
2018-01-27T13:20:57.345Z,91.61
2018-01-27T13:23:24.797Z,92.37
2018-01-27T13:25:52.333Z,92.89
2018-01-27T13:28:20.179Z,92.98
2018-01-27T13:30:47.649Z,91.50
2018-01-27T13:33:15.125Z,92.08
2018-01-27T13:35:42.700Z,92.54
2018-01-27T13:38:10.150Z,93.24
2018-01-27T13:40:37.596Z,94.03
2018-01-27T13:43:05.353Z,95.07
2018-01-27T13:45:32.828Z,94.68
2018-01-27T13:48:00.273Z,93.60
2018-01-27T13:50:27.749Z,93.74
2018-01-27T13:52:55.221Z,94.06
2018-01-27T13:55:22.693Z,93.45
2018-01-27T13:57:50.304Z,93.55
2018-01-27T14:00:17.784Z,94.02
2018-01-27T14:02:45.232Z,94.23
2018-01-27T14:05:12.876Z,93.76
2018-01-27T14:07:40.384Z,93.67
2018-01-27T14:10:07.825Z,93.88
2018-01-27T14:12:35.760Z,94.39
2018-01-27T14:15:03.209Z,94.30
2018-01-27T14:17:30.657Z,94.79
2018-01-27T14:19:58.694Z,95.18
2018-01-27T14:22:26.145Z,94.94
2018-01-27T14:24:53.592Z,94.68
2018-01-27T14:27:21.068Z,94.57
2018-01-27T14:29:48.519Z,93.75
2018-01-27T14:32:16.002Z,93.38
2018-01-27T14:34:43.635Z,92.75
2018-01-27T14:37:11.086Z,92.35
2018-01-27T14:39:38.570Z,93.61
2018-01-27T14:42:06.360Z,94.41
2018-01-27T14:44:33.830Z,94.78
2018-01-27T14:47:01.291Z,94.39
2018-01-27T14:49:28.764Z,93.49
2018-01-27T14:51:56.210Z,92.53
2018-01-27T14:54:23.677Z,91.35
2018-01-27T14:56:51.406Z,91.27
2018-01-27T14:59:18.871Z,92.18
2018-01-27T15:01:46.323Z,92.06
2018-01-27T15:04:13.945Z,89.95
2018-01-27T15:06:41.428Z,89.16
2018-01-27T15:09:08.892Z,90.40
2018-01-27T15:11:36.410Z,90.70
2018-01-27T15:14:03.869Z,90.74
2018-01-27T15:16:31.316Z,91.41
2018-01-27T15:18:58.789Z,91.67
2018-01-27T15:21:26.260Z,92.16
2018-01-27T15:23:54.152Z,92.55
2018-01-27T15:26:21.597Z,91.58
2018-01-27T15:28:49.054Z,91.68
2018-01-27T15:31:16.540Z,91.41
2018-01-27T15:33:44.005Z,91.31
2018-01-27T15:36:11.482Z,91.21
2018-01-27T15:38:38.941Z,91.60
2018-01-27T15:41:06.410Z,91.72
2018-01-27T15:43:33.899Z,91.85
2018-01-27T15:46:01.376Z,92.35
2018-01-27T15:48:29.190Z,92.10
2018-01-27T15:50:56.638Z,93.17
2018-01-27T15:53:24.089Z,93.06
2018-01-27T15:55:52.207Z,93.30
2018-01-27T15:58:19.722Z,93.01
2018-01-27T16:00:47.322Z,92.73
2018-01-27T16:03:14.802Z,91.67
2018-01-27T16:05:42.285Z,91.57
2018-01-27T16:08:09.953Z,92.52
2018-01-27T16:10:37.440Z,93.96
2018-01-27T16:13:04.924Z,94.51
2018-01-27T16:15:32.369Z,95.16
2018-01-27T16:17:59.817Z,95.56
2018-01-27T16:20:27.313Z,95.72
2018-01-27T16:22:54.760Z,94.48
2018-01-27T16:25:22.252Z,93.39
2018-01-27T16:27:49.702Z,93.64
2018-01-27T16:30:17.181Z,93.63
2018-01-27T16:32:44.676Z,93.62
2018-01-27T16:35:12.122Z,93.19
2018-01-27T16:37:39.632Z,93.58
2018-01-27T16:40:07.078Z,92.96
2018-01-27T16:42:34.528Z,92.58
2018-01-27T16:45:02.105Z,92.42
2018-01-27T16:47:29.554Z,92.80
2018-01-27T16:49:57.036Z,93.26
2018-01-27T16:52:24.484Z,92.53
2018-01-27T16:54:51.933Z,92.70
2018-01-27T16:57:19.425Z,92.77
2018-01-27T16:59:46.896Z,92.88
2018-01-27T17:02:14.365Z,93.10
2018-01-27T17:04:41.841Z,92.75
2018-01-27T17:07:09.288Z,92.72
2018-01-27T17:09:36.801Z,92.13
2018-01-27T17:12:04.256Z,93.08
2018-01-27T17:14:31.747Z,92.82
2018-01-27T17:16:59.225Z,92.55
2018-01-27T17:19:26.681Z,92.06
2018-01-27T17:21:54.154Z,92.45
2018-01-27T17:24:22.211Z,92.78
2018-01-27T17:26:49.891Z,93.33
2018-01-27T17:29:17.357Z,94.02
2018-01-27T17:31:44.837Z,93.88
2018-01-27T17:34:12.314Z,93.81
2018-01-27T17:36:40.953Z,94.29
2018-01-27T17:39:09.087Z,93.87
2018-01-27T17:41:36.986Z,92.67
2018-01-27T17:44:04.643Z,92.16
2018-01-27T17:46:32.263Z,91.38
2018-01-27T17:48:59.783Z,91.38
2018-01-27T17:51:27.657Z,91.03
2018-01-27T17:53:55.307Z,90.65
2018-01-27T17:56:23.107Z,90.45
2018-01-27T17:58:50.769Z,90.84
2018-01-27T18:01:18.613Z,91.22
2018-01-27T18:03:46.151Z,91.39
2018-01-27T18:06:13.788Z,91.61
2018-01-27T18:08:41.235Z,91.65
2018-01-27T18:11:08.720Z,91.13
2018-01-27T18:13:36.176Z,91.50
2018-01-27T18:16:03.712Z,91.30
2018-01-27T18:18:31.184Z,91.18
2018-01-27T18:20:58.654Z,91.61
2018-01-27T18:23:26.124Z,91.47
2018-01-27T18:25:53.929Z,90.63
2018-01-27T18:28:21.613Z,91.05
2018-01-27T18:30:49.057Z,90.78
2018-01-27T18:33:16.500Z,91.00
2018-01-27T18:35:43.996Z,91.34
2018-01-27T18:38:11.447Z,91.39
2018-01-27T18:40:39.070Z,91.41
2018-01-27T18:43:07.121Z,91.45
2018-01-27T18:45:34.753Z,91.01
2018-01-27T18:48:02.286Z,90.88
2018-01-27T18:50:29.737Z,91.00
2018-01-27T18:52:57.233Z,90.69
2018-01-27T18:55:24.679Z,89.95
2018-01-27T18:57:52.126Z,89.68
2018-01-27T19:00:19.614Z,89.20
2018-01-27T19:02:47.056Z,89.67
2018-01-27T19:05:14.649Z,89.50
2018-01-27T19:07:42.887Z,89.57
2018-01-27T19:10:10.344Z,89.31
2018-01-27T19:12:37.814Z,89.49
2018-01-27T19:15:05.249Z,89.76
2018-01-27T19:17:32.729Z,89.89
2018-01-27T19:20:00.169Z,89.56
2018-01-27T19:22:27.709Z,89.60
2018-01-27T19:24:55.173Z,89.45
2018-01-27T19:27:22.661Z,89.46
2018-01-27T19:29:50.153Z,89.23
2018-01-27T19:32:17.600Z,89.52
2018-01-27T19:34:45.065Z,89.67
2018-01-27T19:37:12.540Z,89.50
2018-01-27T19:39:39.985Z,89.63
2018-01-27T19:42:07.528Z,89.11
2018-01-27T19:44:34.977Z,89.49
2018-01-27T19:47:02.422Z,89.50
2018-01-27T19:49:29.888Z,89.65
2018-01-27T19:51:57.336Z,89.34
2018-01-27T19:54:25.006Z,89.52
2018-01-27T19:56:52.458Z,89.25
2018-01-27T19:59:19.901Z,89.35
2018-01-27T20:01:47.364Z,89.40
2018-01-27T20:04:14.808Z,89.74
2018-01-27T20:06:42.493Z,89.56
2018-01-27T20:09:09.958Z,89.40
2018-01-27T20:11:37.407Z,88.79
2018-01-27T20:14:04.873Z,89.40
2018-01-27T20:16:32.318Z,89.04
2018-01-27T20:18:59.977Z,88.86
2018-01-27T20:21:27.425Z,88.76
2018-01-27T20:23:54.885Z,88.89
2018-01-27T20:26:22.356Z,88.86
2018-01-27T20:28:49.806Z,88.54
2018-01-27T20:31:17.276Z,88.86
2018-01-27T20:33:44.721Z,88.62
2018-01-27T20:36:12.195Z,88.08
2018-01-27T20:38:39.695Z,88.25
2018-01-27T20:41:07.144Z,88.04
2018-01-27T20:43:34.852Z,88.13
2018-01-27T20:46:02.312Z,88.49
2018-01-27T20:48:29.764Z,88.62
2018-01-27T20:50:57.229Z,88.83
2018-01-27T20:53:24.679Z,88.73
2018-01-27T20:55:52.197Z,88.84
2018-01-27T20:58:19.642Z,88.73
2018-01-27T21:00:47.095Z,88.38
2018-01-27T21:03:14.569Z,88.59
2018-01-27T21:05:42.025Z,88.90
2018-01-27T21:08:09.616Z,88.47
2018-01-27T21:10:38.968Z,88.97
2018-01-27T21:13:06.480Z,88.73
2018-01-27T21:15:33.945Z,88.36
2018-01-27T21:18:01.393Z,87.83
2018-01-27T21:20:28.872Z,88.37
2018-01-27T21:22:56.984Z,88.17
2018-01-27T21:25:24.460Z,88.42
2018-01-27T21:27:51.964Z,87.58
2018-01-27T21:30:19.413Z,88.82
2018-01-27T21:32:46.905Z,88.46
2018-01-27T21:35:14.403Z,88.60
2018-01-27T21:37:41.849Z,88.80
2018-01-27T21:40:09.317Z,88.84
2018-01-27T21:42:36.768Z,88.00
2018-01-27T21:45:04.453Z,88.05
2018-01-27T21:47:31.914Z,88.08
2018-01-27T21:49:59.364Z,87.08
2018-01-27T21:52:26.838Z,85.48
2018-01-27T21:54:54.285Z,84.24
2018-01-27T21:57:21.777Z,84.55
2018-01-27T21:59:49.236Z,83.95
2018-01-27T22:02:16.698Z,84.13
2018-01-27T22:04:44.181Z,83.52
2018-01-27T22:07:11.629Z,83.32
2018-01-27T22:09:39.142Z,83.80
2018-01-27T22:12:06.677Z,83.51
2018-01-27T22:14:34.129Z,83.59
2018-01-27T22:17:01.593Z,82.59
2018-01-27T22:19:29.044Z,83.88
2018-01-27T22:21:56.532Z,83.99
2018-01-27T22:24:23.976Z,83.52
2018-01-27T22:26:51.421Z,83.52
2018-01-27T22:29:18.896Z,84.49
2018-01-27T22:31:46.367Z,84.18
2018-01-27T22:34:13.940Z,84.26
2018-01-27T22:36:41.388Z,84.75
2018-01-27T22:39:08.840Z,85.03
2018-01-27T22:41:36.308Z,84.10
2018-01-27T22:44:03.757Z,84.90
2018-01-27T22:46:31.565Z,84.92
2018-01-27T22:48:59.008Z,85.06
2018-01-27T22:51:26.452Z,84.62
2018-01-27T22:53:53.942Z,85.16
2018-01-27T22:56:21.389Z,85.56
2018-01-27T22:58:49.357Z,85.36
2018-01-27T23:01:20.692Z,85.42
2018-01-27T23:03:48.137Z,85.71
2018-01-27T23:06:15.602Z,84.71
2018-01-27T23:08:43.073Z,85.14
2018-01-27T23:11:12.679Z,85.60
2018-01-27T23:13:40.193Z,85.62
2018-01-27T23:16:07.638Z,84.52
2018-01-27T23:18:35.106Z,83.82
2018-01-27T23:21:02.540Z,84.00
2018-01-27T23:23:30.016Z,83.97
2018-01-27T23:25:57.453Z,83.42
2018-01-27T23:28:24.893Z,84.47
2018-01-27T23:30:52.366Z,84.67
2018-01-27T23:33:19.825Z,84.17
2018-01-27T23:35:47.308Z,84.45
2018-01-27T23:38:14.780Z,83.85
2018-01-27T23:40:42.220Z,85.07
2018-01-27T23:43:09.684Z,85.09
2018-01-27T23:45:37.140Z,84.45
2018-01-27T23:48:04.617Z,85.35
2018-01-27T23:50:32.291Z,85.18
2018-01-27T23:52:59.777Z,85.00
2018-01-27T23:55:27.260Z,85.38
2018-01-27T23:57:54.697Z,84.20
